Terminal Aerodrome Forecast
Issued by NWS

Current Version | Previous Version | Graphics & Text | Print | Product List | Glossary On
Versions: 1 2 3 4 5 6 7 8 9 10 11 12 13 14 15 16 17 18 19 20 21 22 23 24 25 26 27 28 29 30 31 32 33 34
000
FTUS41 KRNK 290728 AAA
TAFLWB
TAF AMD
KLWB 290728Z 2907/3006 00000KT 4SM BR SCT050
      TEMPO 2908/2912 2SM BR
     FM291600 00000KT P6SM SCT035
     FM292100 VRB03KT P6SM -SHRA BKN050
     FM300000 00000KT P6SM BKN100=

USA.gov is the U.S. government's official web portal to all federal, state and local government web resources and services.